createdAt,value
2019-01-25T00:02:17.393Z,13.50
2019-01-25T00:04:44.036Z,17.87
2019-01-25T00:07:10.713Z,22.07
2019-01-25T00:09:37.414Z,18.83
2019-01-25T00:12:04.014Z,14.57
2019-01-25T00:14:30.634Z,15.80
2019-01-25T00:16:57.197Z,17.37
2019-01-25T00:19:23.809Z,17.03
2019-01-25T00:21:50.380Z,18.00
2019-01-25T00:24:16.979Z,17.87
2019-01-25T00:26:43.570Z,21.33
2019-01-25T00:29:10.169Z,21.07
2019-01-25T00:31:36.770Z,15.77
2019-01-25T00:34:03.518Z,15.10
2019-01-25T00:36:30.244Z,17.77
2019-01-25T00:38:56.886Z,14.17
2019-01-25T00:41:23.554Z,12.27
2019-01-25T00:43:50.435Z,14.70
2019-01-25T00:46:17.075Z,20.67
2019-01-25T00:48:43.974Z,12.23
2019-01-25T00:51:10.988Z,15.33
2019-01-25T00:53:37.702Z,14.27
2019-01-25T00:56:04.728Z,14.90
2019-01-25T00:58:31.313Z,13.87
2019-01-25T01:00:57.877Z,13.87
2019-01-25T01:03:24.499Z,11.33
2019-01-25T01:05:51.175Z,14.73
2019-01-25T01:08:17.881Z,15.60
2019-01-25T01:10:44.529Z,15.33
2019-01-25T01:13:11.101Z,12.23
2019-01-25T01:15:37.667Z,16.67
2019-01-25T01:18:04.307Z,13.43
2019-01-25T01:20:30.915Z,14.27
2019-01-25T01:22:57.559Z,18.07
2019-01-25T01:25:24.118Z,13.17
2019-01-25T01:27:50.713Z,15.83
2019-01-25T01:30:20.195Z,10.63
2019-01-25T01:32:46.811Z,14.10
2019-01-25T01:35:13.375Z,17.33
2019-01-25T01:37:40.053Z,11.03
2019-01-25T01:40:12.066Z,17.23
2019-01-25T01:42:38.744Z,12.50
2019-01-25T01:45:06.226Z,16.40
2019-01-25T01:47:32.915Z,16.20
2019-01-25T01:49:59.498Z,12.50
2019-01-25T01:52:26.218Z,10.33
2019-01-25T01:54:52.826Z,14.43
2019-01-25T01:57:19.400Z,14.20
2019-01-25T01:59:45.996Z,12.93
2019-01-25T02:02:12.682Z,13.23
2019-01-25T02:04:39.282Z,14.27
2019-01-25T02:07:05.895Z,16.63
2019-01-25T02:09:33.572Z,16.37
2019-01-25T02:12:00.248Z,15.77
2019-01-25T02:14:26.948Z,14.87
2019-01-25T02:16:53.589Z,14.20
2019-01-25T02:19:20.247Z,13.70
2019-01-25T02:21:47.144Z,17.23
2019-01-25T02:24:16.841Z,16.93
2019-01-25T02:26:43.502Z,11.33
2019-01-25T02:29:10.054Z,12.23
2019-01-25T02:31:36.684Z,12.47
2019-01-25T02:34:03.425Z,12.40
2019-01-25T02:36:30.002Z,15.57
2019-01-25T02:38:56.676Z,12.80
2019-01-25T02:41:23.351Z,12.93
2019-01-25T02:43:49.925Z,24.10
2019-01-25T02:46:16.518Z,12.97
2019-01-25T02:48:43.230Z,14.57
2019-01-25T02:51:09.810Z,11.90
2019-01-25T02:53:36.453Z,13.17
2019-01-25T02:56:03.394Z,11.87
2019-01-25T02:58:30.100Z,8.07
2019-01-25T03:00:56.777Z,14.67
2019-01-25T03:03:27.482Z,12.00
2019-01-25T03:05:54.060Z,8.07
2019-01-25T03:08:20.665Z,13.37
2019-01-25T03:10:47.476Z,10.47
2019-01-25T03:13:14.222Z,15.50
2019-01-25T03:15:40.816Z,11.90
2019-01-25T03:18:07.807Z,10.73
2019-01-25T03:20:34.402Z,11.13
2019-01-25T03:23:01.258Z,9.60
2019-01-25T03:25:29.070Z,14.07
2019-01-25T03:27:55.707Z,8.33
2019-01-25T03:30:24.445Z,11.93
2019-01-25T03:32:51.290Z,8.67
2019-01-25T03:35:21.055Z,13.40
2019-01-25T03:37:48.632Z,8.97
2019-01-25T03:40:20.142Z,11.27
2019-01-25T03:42:46.727Z,7.73
2019-01-25T03:45:14.353Z,12.77
2019-01-25T03:47:41.069Z,10.73
2019-01-25T03:50:13.419Z,9.23
2019-01-25T03:52:39.997Z,14.27
2019-01-25T03:55:10.611Z,12.47
2019-01-25T03:57:37.162Z,7.30
2019-01-25T04:00:09.544Z,11.33
2019-01-25T04:02:36.090Z,7.97
2019-01-25T04:05:08.255Z,12.73
2019-01-25T04:07:35.469Z,13.60
2019-01-25T04:10:06.424Z,10.57
2019-01-25T04:12:33.367Z,10.47
2019-01-25T04:15:00.325Z,11.53
2019-01-25T04:17:27.615Z,8.83
2019-01-25T04:19:54.685Z,9.17
2019-01-25T04:22:21.768Z,8.17
2019-01-25T04:24:48.965Z,10.73
2019-01-25T04:27:16.591Z,7.90
2019-01-25T04:29:44.181Z,9.93
2019-01-25T04:32:11.812Z,12.03
2019-01-25T04:34:39.236Z,9.57
2019-01-25T04:37:06.823Z,9.03
2019-01-25T04:39:34.499Z,10.10
2019-01-25T04:42:02.095Z,9.73
2019-01-25T04:44:29.596Z,9.47
2019-01-25T04:46:56.674Z,12.17
2019-01-25T04:49:24.165Z,11.37
2019-01-25T04:51:51.756Z,12.33
2019-01-25T04:54:18.852Z,12.10
2019-01-25T04:56:45.532Z,11.10
2019-01-25T04:59:12.134Z,10.13
2019-01-25T05:01:38.683Z,9.87
2019-01-25T05:04:05.251Z,6.97
2019-01-25T05:06:32.236Z,12.57
2019-01-25T05:08:58.843Z,8.13
2019-01-25T05:11:26.258Z,14.43
2019-01-25T05:13:53.582Z,11.93
2019-01-25T05:16:20.733Z,8.40
2019-01-25T05:18:47.993Z,9.57
2019-01-25T05:21:18.626Z,9.17
2019-01-25T05:23:45.703Z,12.63
2019-01-25T05:26:14.995Z,12.10
2019-01-25T05:28:41.935Z,9.67
2019-01-25T05:31:09.226Z,8.33
2019-01-25T05:33:36.113Z,17.43
2019-01-25T05:36:03.583Z,9.50
2019-01-25T05:38:30.419Z,8.13
2019-01-25T05:40:57.823Z,9.43
2019-01-25T05:43:24.751Z,11.30
2019-01-25T05:45:51.708Z,12.03
2019-01-25T05:48:18.415Z,8.67
2019-01-25T05:50:45.066Z,8.00
2019-01-25T05:53:12.798Z,10.27
2019-01-25T05:55:39.443Z,9.30
2019-01-25T05:58:08.201Z,13.27
2019-01-25T06:00:36.826Z,10.37
2019-01-25T06:03:06.778Z,11.73
2019-01-25T06:05:33.401Z,11.47
2019-01-25T06:08:00.073Z,13.70
2019-01-25T06:10:31.158Z,8.40
2019-01-25T06:12:57.851Z,8.77
2019-01-25T06:15:27.387Z,6.67
2019-01-25T06:17:54.507Z,11.67
2019-01-25T06:20:21.482Z,17.30
2019-01-25T06:22:48.977Z,12.37
2019-01-25T06:25:15.601Z,11.13
2019-01-25T06:27:42.583Z,11.47
2019-01-25T06:30:12.870Z,10.60
2019-01-25T06:32:41.842Z,9.10
2019-01-25T06:35:10.496Z,10.80
2019-01-25T06:37:37.198Z,11.07
2019-01-25T06:40:08.773Z,8.53
2019-01-25T06:42:35.977Z,11.57
2019-01-25T06:45:06.492Z,10.10
2019-01-25T06:47:33.120Z,8.27
2019-01-25T06:49:59.752Z,10.90
2019-01-25T06:52:26.465Z,10.13
2019-01-25T06:54:53.285Z,13.10
2019-01-25T06:57:22.117Z,11.20
2019-01-25T06:59:50.020Z,10.87
2019-01-25T07:02:16.832Z,10.17
2019-01-25T07:04:43.500Z,8.87
2019-01-25T07:07:12.121Z,11.00
2019-01-25T07:09:39.789Z,9.77
2019-01-25T07:12:06.422Z,9.80
2019-01-25T07:14:33.059Z,11.63
2019-01-25T07:16:59.813Z,11.13
2019-01-25T07:19:26.445Z,7.40
2019-01-25T07:21:53.167Z,12.17
2019-01-25T07:24:20.940Z,10.73
2019-01-25T07:26:47.575Z,8.83
2019-01-25T07:29:14.191Z,11.37
2019-01-25T07:31:40.824Z,13.83
2019-01-25T07:34:08.536Z,9.57
2019-01-25T07:36:37.382Z,10.13
2019-01-25T07:39:09.783Z,6.57
2019-01-25T07:41:36.454Z,11.67
2019-01-25T07:44:03.052Z,9.80
2019-01-25T07:46:29.779Z,11.70
2019-01-25T07:48:56.653Z,14.90
2019-01-25T07:51:23.365Z,9.33
2019-01-25T07:53:50.032Z,9.67
2019-01-25T07:56:16.713Z,10.10
2019-01-25T07:58:43.525Z,8.67
2019-01-25T08:01:10.213Z,8.43
2019-01-25T08:03:37.461Z,9.87
2019-01-25T08:06:04.199Z,13.63
2019-01-25T08:08:30.839Z,13.13
2019-01-25T08:10:57.619Z,10.97
2019-01-25T08:13:24.219Z,13.00
2019-01-25T08:15:50.893Z,8.87
2019-01-25T08:18:17.679Z,10.73
2019-01-25T08:20:44.311Z,10.40
2019-01-25T08:23:10.921Z,9.30
2019-01-25T08:25:37.581Z,9.77
2019-01-25T08:28:04.242Z,14.63
2019-01-25T08:30:31.017Z,14.57
2019-01-25T08:32:57.600Z,10.23
2019-01-25T08:35:24.196Z,12.30
2019-01-25T08:37:51.032Z,11.03
2019-01-25T08:40:17.804Z,9.23
2019-01-25T08:42:44.459Z,10.23
2019-01-25T08:45:14.655Z,12.70
2019-01-25T08:47:44.517Z,11.93
2019-01-25T08:50:16.753Z,10.77
2019-01-25T08:52:43.554Z,9.80
2019-01-25T08:55:10.283Z,9.60
2019-01-25T08:57:36.901Z,12.77
2019-01-25T09:00:09.349Z,13.97
2019-01-25T09:02:36.052Z,12.10
2019-01-25T09:05:06.420Z,11.77
2019-01-25T09:07:33.066Z,13.47
2019-01-25T09:10:09.247Z,12.63
2019-01-25T09:12:35.928Z,16.57
2019-01-25T09:15:07.493Z,12.57
2019-01-25T09:17:34.152Z,13.70
2019-01-25T09:20:00.805Z,12.20
2019-01-25T09:22:27.563Z,13.17
2019-01-25T09:24:54.155Z,13.17
2019-01-25T09:27:20.826Z,14.77
2019-01-25T09:29:47.483Z,11.20
2019-01-25T09:32:15.190Z,12.97
2019-01-25T09:34:41.848Z,10.97
2019-01-25T09:37:09.663Z,14.93
2019-01-25T09:39:36.212Z,12.17
2019-01-25T09:42:02.989Z,12.97
2019-01-25T09:44:29.819Z,13.17
2019-01-25T09:46:56.445Z,12.50
2019-01-25T09:49:25.700Z,16.37
2019-01-25T09:51:52.405Z,10.57
2019-01-25T09:54:19.147Z,11.23
2019-01-25T09:56:46.179Z,12.43
2019-01-25T09:59:12.842Z,11.90
2019-01-25T10:01:39.502Z,17.03
2019-01-25T10:04:06.125Z,14.43
2019-01-25T10:06:32.921Z,15.27
2019-01-25T10:08:59.499Z,12.63
2019-01-25T10:11:26.220Z,16.53
2019-01-25T10:13:52.925Z,13.53
2019-01-25T10:16:19.560Z,15.33
2019-01-25T10:18:46.222Z,8.87
2019-01-25T10:21:13.531Z,11.07
2019-01-25T10:23:40.706Z,16.23
2019-01-25T10:26:08.012Z,12.20
2019-01-25T10:28:34.876Z,14.73
2019-01-25T10:31:01.631Z,14.77
2019-01-25T10:33:28.442Z,15.57
2019-01-25T10:35:56.212Z,13.73
2019-01-25T10:39:19.619Z,16.43
2019-01-25T10:41:46.353Z,12.70
2019-01-25T10:44:12.928Z,11.57
2019-01-25T10:46:39.738Z,14.50
2019-01-25T10:49:06.366Z,13.43
2019-01-25T10:51:33.027Z,12.90
2019-01-25T10:53:59.921Z,10.20
2019-01-25T10:56:26.757Z,15.90
2019-01-25T10:58:53.399Z,13.30
2019-01-25T11:01:20.005Z,21.20
2019-01-25T11:03:46.988Z,16.33
2019-01-25T11:06:13.691Z,18.03
2019-01-25T11:08:40.441Z,16.17
2019-01-25T11:11:07.150Z,17.77
2019-01-25T11:13:33.926Z,19.13
2019-01-25T11:16:00.798Z,14.20
2019-01-25T11:18:27.762Z,14.30
2019-01-25T11:20:54.460Z,19.37
2019-01-25T11:23:21.107Z,16.53
2019-01-25T11:25:47.731Z,13.00
2019-01-25T11:28:14.402Z,14.70
2019-01-25T11:30:41.083Z,12.43
2019-01-25T11:33:07.741Z,12.70
2019-01-25T11:35:34.426Z,16.23
2019-01-25T11:38:01.108Z,16.57
2019-01-25T11:40:32.728Z,14.13
2019-01-25T11:42:59.383Z,12.67
2019-01-25T11:45:25.932Z,13.57
2019-01-25T11:47:52.546Z,13.33
2019-01-25T11:50:20.274Z,14.93
2019-01-25T11:52:47.267Z,19.67
2019-01-25T11:55:16.362Z,16.50
2019-01-25T11:57:43.165Z,16.80
2019-01-25T12:00:16.084Z,15.53
2019-01-25T12:02:42.814Z,16.37
2019-01-25T12:05:13.638Z,16.33
2019-01-25T12:07:40.294Z,17.80
2019-01-25T12:10:12.112Z,17.23
2019-01-25T12:12:38.784Z,16.37
2019-01-25T12:17:27.012Z,21.47
2019-01-25T12:19:53.739Z,19.40
2019-01-25T12:22:20.394Z,14.90
2019-01-25T12:24:47.038Z,16.37
2019-01-25T12:27:13.625Z,18.70
2019-01-25T12:29:41.312Z,23.87
2019-01-25T12:32:07.989Z,25.97
2019-01-25T12:34:34.648Z,18.37
2019-01-25T12:37:04.710Z,21.67
2019-01-25T12:39:30.142Z,21.03
2019-01-25T12:41:56.800Z,18.27
2019-01-25T12:44:23.388Z,26.63
2019-01-25T12:46:49.956Z,20.83
2019-01-25T12:49:16.562Z,14.77
2019-01-25T12:51:43.610Z,24.17
2019-01-25T12:54:10.344Z,17.00
2019-01-25T12:56:37.106Z,18.47
2019-01-25T12:59:03.704Z,18.87
2019-01-25T13:01:34.942Z,18.67
2019-01-25T13:03:59.018Z,17.20
2019-01-25T13:06:25.663Z,30.40
2019-01-25T13:08:52.325Z,22.07
2019-01-25T13:11:19.089Z,19.07
2019-01-25T13:13:45.851Z,21.03
2019-01-25T13:16:15.538Z,20.50
2019-01-25T13:18:42.312Z,16.53
2019-01-25T13:21:08.971Z,22.20
2019-01-25T13:23:35.581Z,17.77
2019-01-25T13:26:02.281Z,23.73
2019-01-25T13:28:29.358Z,19.47
2019-01-25T13:30:56.242Z,20.10
2019-01-25T13:33:23.006Z,22.00
2019-01-25T13:35:49.753Z,22.43
2019-01-25T13:38:16.526Z,25.00
2019-01-25T13:40:43.398Z,20.23
2019-01-25T13:43:10.193Z,23.40
2019-01-25T13:45:36.940Z,25.37
2019-01-25T13:48:03.818Z,22.43
2019-01-25T13:50:30.568Z,18.10
2019-01-25T13:52:57.146Z,21.40
2019-01-25T13:55:24.112Z,22.80
2019-01-25T13:57:50.701Z,21.57
2019-01-25T14:00:23.035Z,21.63
2019-01-25T14:02:51.058Z,24.57
2019-01-25T14:05:17.735Z,22.67
2019-01-25T14:07:44.313Z,27.83
2019-01-25T14:10:16.710Z,28.57
2019-01-25T14:12:43.451Z,34.13
2019-01-25T14:15:10.204Z,34.10
2019-01-25T14:17:36.987Z,31.40
2019-01-25T14:20:09.317Z,39.73
2019-01-25T14:22:35.931Z,39.00
2019-01-25T14:25:04.876Z,41.27
2019-01-25T14:27:31.506Z,38.10
2019-01-25T14:29:58.133Z,37.83
2019-01-25T14:32:24.992Z,40.30
2019-01-25T14:34:51.595Z,41.60
2019-01-25T14:37:18.178Z,43.23
2019-01-25T14:39:44.811Z,34.63
2019-01-25T14:42:11.466Z,37.53
2019-01-25T14:44:38.067Z,40.87
2019-01-25T14:47:04.981Z,44.10
2019-01-25T14:49:31.664Z,38.40
2019-01-25T14:51:58.322Z,35.93
2019-01-25T14:54:24.928Z,37.40
2019-01-25T14:56:51.763Z,38.00
2019-01-25T14:59:18.355Z,37.63
2019-01-25T15:01:45.016Z,36.57
2019-01-25T15:04:11.632Z,40.80
2019-01-25T15:07:34.752Z,36.20
2019-01-25T15:10:05.502Z,43.77
2019-01-25T15:12:34.212Z,41.90
2019-01-25T15:15:00.866Z,50.03
2019-01-25T15:17:28.761Z,44.70
2019-01-25T15:19:55.383Z,67.97
2019-01-25T15:22:21.989Z,52.17
2019-01-25T15:24:48.554Z,54.90
2019-01-25T15:27:15.289Z,56.00
2019-01-25T15:29:42.050Z,58.77
2019-01-25T15:32:08.688Z,54.00
2019-01-25T15:34:35.295Z,53.57
2019-01-25T15:37:03.418Z,58.73
2019-01-25T15:39:30.299Z,54.77
2019-01-25T15:41:56.968Z,61.03
2019-01-25T15:44:23.576Z,64.60
2019-01-25T15:50:50.380Z,65.20
2019-01-25T15:53:17.031Z,61.63
2019-01-25T15:55:43.873Z,57.73
2019-01-25T15:58:10.808Z,58.67
2019-01-25T16:00:37.551Z,90.23
2019-01-25T16:03:04.470Z,91.53
2019-01-25T16:05:31.098Z,124.23
2019-01-25T16:07:57.762Z,121.90
2019-01-25T16:10:24.507Z,114.03
2019-01-25T16:12:51.821Z,102.67
2019-01-25T16:15:25.721Z,77.97
2019-01-25T16:17:52.967Z,64.17
2019-01-25T16:20:19.726Z,70.53
2019-01-25T16:22:48.907Z,54.97
2019-01-25T16:25:19.505Z,53.63
2019-01-25T16:27:46.214Z,65.80
2019-01-25T16:30:17.833Z,65.53
2019-01-25T16:32:44.701Z,66.37
2019-01-25T16:35:11.587Z,56.40
2019-01-25T16:37:38.403Z,51.90
2019-01-25T16:40:10.765Z,52.03
2019-01-25T16:42:37.682Z,56.63
2019-01-25T16:45:10.011Z,52.43
2019-01-25T16:47:36.646Z,54.97
2019-01-25T16:50:06.253Z,59.90
2019-01-25T16:52:32.942Z,69.70
2019-01-25T16:55:00.261Z,66.53
2019-01-25T16:57:28.453Z,75.73
2019-01-25T16:59:55.126Z,58.60
2019-01-25T17:02:21.804Z,67.80
2019-01-25T17:04:48.470Z,58.73
2019-01-25T17:07:15.124Z,62.37
2019-01-25T17:09:41.759Z,50.03
2019-01-25T17:12:08.365Z,56.00
2019-01-25T17:14:35.077Z,51.20
2019-01-25T17:17:01.712Z,69.17
2019-01-25T17:19:28.564Z,56.07
2019-01-25T17:21:55.258Z,62.93
2019-01-25T17:24:21.939Z,59.73
2019-01-25T17:26:48.529Z,60.80
2019-01-25T17:29:15.174Z,68.13
2019-01-25T17:31:41.872Z,64.07
2019-01-25T17:34:08.600Z,76.37
2019-01-25T17:36:35.179Z,73.67
2019-01-25T17:39:03.993Z,60.10
2019-01-25T17:41:31.737Z,60.67
2019-01-25T17:43:58.518Z,62.70
2019-01-25T17:46:25.557Z,59.27
2019-01-25T17:48:52.577Z,70.20
2019-01-25T17:51:19.493Z,64.90
2019-01-25T17:53:46.101Z,63.73
2019-01-25T17:56:12.795Z,67.00
2019-01-25T17:58:39.548Z,75.03
2019-01-25T18:01:06.217Z,67.30
2019-01-25T18:03:32.977Z,67.23
2019-01-25T18:05:59.733Z,64.77
2019-01-25T18:08:26.542Z,69.73
2019-01-25T18:10:53.811Z,66.70
2019-01-25T18:13:20.922Z,71.93
2019-01-25T18:15:48.013Z,65.30
2019-01-25T18:18:15.265Z,76.27
2019-01-25T18:20:42.599Z,71.30
2019-01-25T18:23:09.799Z,79.67
2019-01-25T18:25:41.739Z,69.27
2019-01-25T18:28:14.313Z,85.37
2019-01-25T18:30:47.152Z,84.90
2019-01-25T18:33:13.942Z,99.03
2019-01-25T18:35:40.665Z,91.70
2019-01-25T18:38:08.760Z,94.00
2019-01-25T18:40:35.596Z,93.30
2019-01-25T18:43:02.693Z,104.10
2019-01-25T18:45:29.654Z,101.87
2019-01-25T18:47:57.811Z,99.10
2019-01-25T18:50:24.586Z,86.53
2019-01-25T18:52:51.280Z,97.17
2019-01-25T18:55:22.258Z,98.67
2019-01-25T18:57:49.109Z,94.63
2019-01-25T19:00:19.054Z,96.93
2019-01-25T19:02:46.354Z,104.43
2019-01-25T19:05:12.972Z,85.30
2019-01-25T19:07:39.623Z,87.33
2019-01-25T19:10:12.105Z,82.83
2019-01-25T19:12:38.784Z,88.87
2019-01-25T19:15:11.228Z,83.07
2019-01-25T19:17:37.812Z,77.33
2019-01-25T19:20:09.445Z,80.83
2019-01-25T19:22:36.192Z,85.13
2019-01-25T19:25:07.252Z,78.00
2019-01-25T19:27:33.810Z,74.43
2019-01-25T19:30:00.453Z,77.33
2019-01-25T19:32:27.322Z,89.27
2019-01-25T19:34:53.967Z,82.73
2019-01-25T19:37:20.515Z,76.63
2019-01-25T19:39:47.211Z,69.40
2019-01-25T19:42:13.914Z,71.73
2019-01-25T19:44:40.547Z,94.90
2019-01-25T19:47:07.323Z,81.83
2019-01-25T19:49:34.038Z,78.57
2019-01-25T19:52:00.973Z,77.50
2019-01-25T19:54:27.798Z,83.23
2019-01-25T19:56:54.610Z,81.23
2019-01-25T19:59:21.418Z,83.50
2019-01-25T20:01:48.253Z,74.00
2019-01-25T20:04:14.910Z,83.50
2019-01-25T20:06:41.615Z,109.23
2019-01-25T20:09:08.536Z,89.83
2019-01-25T20:11:35.220Z,94.93
2019-01-25T20:14:01.995Z,102.63
2019-01-25T20:16:28.865Z,92.07
2019-01-25T20:18:55.467Z,82.00
2019-01-25T20:21:22.096Z,84.37
2019-01-25T20:23:48.647Z,87.30
2019-01-25T20:26:15.337Z,82.97
2019-01-25T20:28:41.894Z,85.70
2019-01-25T20:31:08.466Z,86.37
2019-01-25T20:33:35.181Z,89.33
2019-01-25T20:36:01.988Z,87.50
2019-01-25T20:38:28.619Z,84.60
2019-01-25T20:40:55.322Z,80.07
2019-01-25T20:43:21.942Z,76.17
2019-01-25T20:45:48.746Z,72.80
2019-01-25T20:48:15.530Z,90.40
2019-01-25T20:50:42.353Z,80.33
2019-01-25T20:53:12.249Z,83.97
2019-01-25T20:55:38.853Z,88.43
2019-01-25T20:58:05.614Z,112.00
2019-01-25T21:00:37.007Z,99.40
2019-01-25T21:03:06.503Z,82.47
2019-01-25T21:05:33.321Z,110.90
2019-01-25T21:07:59.884Z,98.60
2019-01-25T21:10:26.783Z,92.83
2019-01-25T21:12:53.486Z,96.77
2019-01-25T21:15:23.447Z,129.37
2019-01-25T21:17:50.154Z,112.73
2019-01-25T21:20:22.607Z,85.23
2019-01-25T21:22:49.202Z,87.40
2019-01-25T21:25:15.900Z,77.60
2019-01-25T21:27:42.706Z,79.80
2019-01-25T21:30:14.889Z,137.67
2019-01-25T21:32:41.542Z,85.70
2019-01-25T21:35:08.603Z,91.83
2019-01-25T21:37:35.385Z,93.77
2019-01-25T21:40:08.622Z,75.37
2019-01-25T21:42:34.053Z,83.57
2019-01-25T21:45:00.860Z,80.93
2019-01-25T21:47:27.677Z,84.87
2019-01-25T21:49:54.581Z,123.00
2019-01-25T21:52:21.471Z,93.17
2019-01-25T21:54:48.043Z,100.07
2019-01-25T21:57:14.652Z,112.50
2019-01-25T21:59:41.266Z,87.60
2019-01-25T22:02:07.861Z,115.33
2019-01-25T22:04:34.538Z,64.53
2019-01-25T22:07:01.176Z,70.43
2019-01-25T22:09:28.011Z,69.27
2019-01-25T22:11:54.592Z,180.17
2019-01-25T22:14:21.188Z,122.63
2019-01-25T22:16:49.699Z,131.00
2019-01-25T22:19:16.326Z,117.20
2019-01-25T22:21:43.014Z,112.80
2019-01-25T22:24:09.732Z,69.87
2019-01-25T22:26:36.355Z,71.87
2019-01-25T22:29:03.090Z,58.90
2019-01-25T22:31:29.805Z,73.60
2019-01-25T22:33:56.519Z,109.83
2019-01-25T22:36:23.135Z,68.27
2019-01-25T22:38:49.889Z,115.93
2019-01-25T22:41:16.512Z,95.87
2019-01-25T22:43:43.186Z,130.53
2019-01-25T22:46:10.007Z,69.60
2019-01-25T22:48:36.631Z,79.07
2019-01-25T22:51:03.338Z,86.30
2019-01-25T22:53:30.112Z,77.57
2019-01-25T22:55:56.742Z,87.80
2019-01-25T22:58:23.459Z,80.87
2019-01-25T23:00:57.711Z,90.43
2019-01-25T23:03:30.222Z,248.27
2019-01-25T23:06:00.687Z,110.30
2019-01-25T23:08:27.475Z,150.07
2019-01-25T23:10:54.118Z,100.77
2019-01-25T23:13:20.856Z,97.53
2019-01-25T23:15:47.440Z,83.77
2019-01-25T23:18:14.116Z,153.43
2019-01-25T23:20:40.740Z,93.30
2019-01-25T23:23:07.416Z,111.00
2019-01-25T23:25:34.029Z,107.83
2019-01-25T23:28:00.989Z,95.70
2019-01-25T23:30:27.648Z,90.07
2019-01-25T23:32:54.296Z,101.20
2019-01-25T23:35:20.991Z,77.67
2019-01-25T23:37:47.556Z,79.10
2019-01-25T23:40:14.155Z,79.37
2019-01-25T23:42:40.928Z,92.43
2019-01-25T23:45:07.870Z,67.53
2019-01-25T23:47:34.466Z,77.93
2019-01-25T23:50:01.234Z,85.33
2019-01-25T23:52:28.091Z,81.63
2019-01-25T23:54:54.666Z,80.73
2019-01-25T23:58:17.695Z,72.50
